sensor_id;sensor_type;location;lat;lon;timestamp;P1;durP1;ratioP1;P2;durP2;ratioP2
58294;SDS011;45705;55.592;37.460;2023-05-07T00:01:56;7.90;;;4.33;;
58294;SDS011;45705;55.592;37.460;2023-05-07T00:04:22;6.80;;;4.15;;
58294;SDS011;45705;55.592;37.460;2023-05-07T00:06:48;7.78;;;4.43;;
58294;SDS011;45705;55.592;37.460;2023-05-07T00:09:14;9.48;;;4.22;;
58294;SDS011;45705;55.592;37.460;2023-05-07T00:11:39;5.97;;;3.92;;
58294;SDS011;45705;55.592;37.460;2023-05-07T00:14:05;7.55;;;4.07;;
58294;SDS011;45705;55.592;37.460;2023-05-07T00:16:31;8.25;;;4.63;;
58294;SDS011;45705;55.592;37.460;2023-05-07T00:18:57;9.40;;;4.20;;
58294;SDS011;45705;55.592;37.460;2023-05-07T00:21:23;7.38;;;3.53;;
58294;SDS011;45705;55.592;37.460;2023-05-07T00:23:52;11.43;;;3.97;;
58294;SDS011;45705;55.592;37.460;2023-05-07T00:26:19;6.18;;;4.22;;
58294;SDS011;45705;55.592;37.460;2023-05-07T00:28:47;6.73;;;4.43;;
58294;SDS011;45705;55.592;37.460;2023-05-07T00:31:13;6.78;;;4.20;;
58294;SDS011;45705;55.592;37.460;2023-05-07T00:33:39;5.93;;;3.97;;
58294;SDS011;45705;55.592;37.460;2023-05-07T00:36:05;7.15;;;4.25;;
58294;SDS011;45705;55.592;37.460;2023-05-07T00:38:31;5.15;;;4.38;;
58294;SDS011;45705;55.592;37.460;2023-05-07T00:40:56;8.43;;;4.20;;
58294;SDS011;45705;55.592;37.460;2023-05-07T00:43:22;5.60;;;4.05;;
58294;SDS011;45705;55.592;37.460;2023-05-07T00:45:48;6.80;;;4.45;;
58294;SDS011;45705;55.592;37.460;2023-05-07T00:48:14;7.20;;;4.30;;
58294;SDS011;45705;55.592;37.460;2023-05-07T00:50:40;7.50;;;4.35;;
58294;SDS011;45705;55.592;37.460;2023-05-07T00:53:06;7.68;;;4.22;;
58294;SDS011;45705;55.592;37.460;2023-05-07T00:55:32;7.13;;;4.40;;
58294;SDS011;45705;55.592;37.460;2023-05-07T00:57:59;9.20;;;4.78;;
58294;SDS011;45705;55.592;37.460;2023-05-07T01:00:25;6.13;;;3.70;;
58294;SDS011;45705;55.592;37.460;2023-05-07T01:02:51;5.72;;;4.00;;
58294;SDS011;45705;55.592;37.460;2023-05-07T01:05:17;8.05;;;4.20;;
58294;SDS011;45705;55.592;37.460;2023-05-07T01:07:45;6.75;;;4.75;;
58294;SDS011;45705;55.592;37.460;2023-05-07T01:10:12;8.38;;;4.68;;
58294;SDS011;45705;55.592;37.460;2023-05-07T01:12:40;6.72;;;4.03;;
58294;SDS011;45705;55.592;37.460;2023-05-07T01:15:07;9.00;;;4.22;;
58294;SDS011;45705;55.592;37.460;2023-05-07T01:17:35;7.28;;;4.35;;
58294;SDS011;45705;55.592;37.460;2023-05-07T01:20:03;5.88;;;4.22;;
58294;SDS011;45705;55.592;37.460;2023-05-07T01:22:34;5.93;;;4.22;;
58294;SDS011;45705;55.592;37.460;2023-05-07T01:25:02;9.02;;;3.72;;
58294;SDS011;45705;55.592;37.460;2023-05-07T01:27:32;6.53;;;4.40;;
58294;SDS011;45705;55.592;37.460;2023-05-07T01:29:59;8.60;;;3.90;;
58294;SDS011;45705;55.592;37.460;2023-05-07T01:32:32;6.82;;;4.70;;
58294;SDS011;45705;55.592;37.460;2023-05-07T01:35:03;6.60;;;4.38;;
58294;SDS011;45705;55.592;37.460;2023-05-07T01:37:31;6.47;;;4.77;;
58294;SDS011;45705;55.592;37.460;2023-05-07T01:39:57;6.72;;;4.90;;
58294;SDS011;45705;55.592;37.460;2023-05-07T01:42:23;7.30;;;4.68;;
58294;SDS011;45705;55.592;37.460;2023-05-07T01:44:49;6.90;;;4.45;;
58294;SDS011;45705;55.592;37.460;2023-05-07T01:47:15;7.20;;;4.70;;
58294;SDS011;45705;55.592;37.460;2023-05-07T01:49:42;11.20;;;4.78;;
58294;SDS011;45705;55.592;37.460;2023-05-07T01:52:09;9.00;;;5.00;;
58294;SDS011;45705;55.592;37.460;2023-05-07T01:54:36;6.25;;;4.82;;
58294;SDS011;45705;55.592;37.460;2023-05-07T01:57:02;8.05;;;4.90;;
58294;SDS011;45705;55.592;37.460;2023-05-07T01:59:28;6.28;;;4.45;;
58294;SDS011;45705;55.592;37.460;2023-05-07T02:01:54;6.40;;;4.22;;
58294;SDS011;45705;55.592;37.460;2023-05-07T02:04:20;7.95;;;4.60;;
58294;SDS011;45705;55.592;37.460;2023-05-07T02:06:46;6.43;;;4.43;;
58294;SDS011;45705;55.592;37.460;2023-05-07T02:09:13;7.60;;;4.30;;
58294;SDS011;45705;55.592;37.460;2023-05-07T02:11:41;6.95;;;4.63;;
58294;SDS011;45705;55.592;37.460;2023-05-07T02:14:07;12.10;;;5.20;;
58294;SDS011;45705;55.592;37.460;2023-05-07T02:16:33;7.95;;;4.75;;
58294;SDS011;45705;55.592;37.460;2023-05-07T02:18:59;7.45;;;4.88;;
58294;SDS011;45705;55.592;37.460;2023-05-07T02:21:26;7.43;;;4.88;;
58294;SDS011;45705;55.592;37.460;2023-05-07T02:23:51;8.00;;;5.15;;
58294;SDS011;45705;55.592;37.460;2023-05-07T02:26:17;6.85;;;4.80;;
58294;SDS011;45705;55.592;37.460;2023-05-07T02:28:44;10.18;;;5.22;;
58294;SDS011;45705;55.592;37.460;2023-05-07T02:31:10;6.05;;;4.55;;
58294;SDS011;45705;55.592;37.460;2023-05-07T02:33:35;7.57;;;5.05;;
58294;SDS011;45705;55.592;37.460;2023-05-07T02:36:08;8.77;;;4.72;;
58294;SDS011;45705;55.592;37.460;2023-05-07T02:38:38;10.48;;;5.05;;
58294;SDS011;45705;55.592;37.460;2023-05-07T02:41:05;7.28;;;5.18;;
58294;SDS011;45705;55.592;37.460;2023-05-07T02:43:31;10.05;;;5.18;;
58294;SDS011;45705;55.592;37.460;2023-05-07T02:46:02;9.65;;;4.80;;
58294;SDS011;45705;55.592;37.460;2023-05-07T02:48:35;13.10;;;4.37;;
58294;SDS011;45705;55.592;37.460;2023-05-07T02:51:01;7.72;;;4.85;;
58294;SDS011;45705;55.592;37.460;2023-05-07T02:53:29;19.80;;;5.05;;
58294;SDS011;45705;55.592;37.460;2023-05-07T02:55:55;7.05;;;4.43;;
58294;SDS011;45705;55.592;37.460;2023-05-07T02:58:22;9.05;;;4.70;;
58294;SDS011;45705;55.592;37.460;2023-05-07T03:00:48;7.72;;;4.28;;
58294;SDS011;45705;55.592;37.460;2023-05-07T03:03:26;7.38;;;4.32;;
58294;SDS011;45705;55.592;37.460;2023-05-07T03:05:52;8.25;;;4.68;;
58294;SDS011;45705;55.592;37.460;2023-05-07T03:08:18;13.20;;;4.70;;
58294;SDS011;45705;55.592;37.460;2023-05-07T03:10:44;10.98;;;4.85;;
58294;SDS011;45705;55.592;37.460;2023-05-07T03:13:09;10.30;;;4.63;;
58294;SDS011;45705;55.592;37.460;2023-05-07T03:15:35;7.78;;;4.50;;
58294;SDS011;45705;55.592;37.460;2023-05-07T03:18:02;7.60;;;4.32;;
58294;SDS011;45705;55.592;37.460;2023-05-07T03:20:27;8.18;;;4.30;;
58294;SDS011;45705;55.592;37.460;2023-05-07T03:22:53;6.50;;;4.18;;
58294;SDS011;45705;55.592;37.460;2023-05-07T03:25:19;8.65;;;3.83;;
58294;SDS011;45705;55.592;37.460;2023-05-07T03:27:46;5.93;;;4.13;;
58294;SDS011;45705;55.592;37.460;2023-05-07T03:30:12;7.82;;;3.95;;
58294;SDS011;45705;55.592;37.460;2023-05-07T03:32:38;6.10;;;4.13;;
58294;SDS011;45705;55.592;37.460;2023-05-07T03:35:07;4.35;;;3.08;;
58294;SDS011;45705;55.592;37.460;2023-05-07T03:37:33;5.90;;;3.80;;
58294;SDS011;45705;55.592;37.460;2023-05-07T03:39:59;5.07;;;3.88;;
58294;SDS011;45705;55.592;37.460;2023-05-07T03:42:25;6.40;;;4.10;;
58294;SDS011;45705;55.592;37.460;2023-05-07T03:44:51;8.75;;;3.58;;
58294;SDS011;45705;55.592;37.460;2023-05-07T03:47:18;6.13;;;3.47;;
58294;SDS011;45705;55.592;37.460;2023-05-07T03:49:45;7.15;;;3.33;;
58294;SDS011;45705;55.592;37.460;2023-05-07T03:52:12;3.67;;;2.83;;
58294;SDS011;45705;55.592;37.460;2023-05-07T03:54:38;4.40;;;3.30;;
58294;SDS011;45705;55.592;37.460;2023-05-07T03:57:04;7.05;;;2.90;;
58294;SDS011;45705;55.592;37.460;2023-05-07T03:59:30;5.72;;;3.35;;
58294;SDS011;45705;55.592;37.460;2023-05-07T04:01:57;5.65;;;3.38;;
58294;SDS011;45705;55.592;37.460;2023-05-07T04:06:51;3.65;;;2.90;;
58294;SDS011;45705;55.592;37.460;2023-05-07T04:09:17;3.13;;;2.75;;
58294;SDS011;45705;55.592;37.460;2023-05-07T04:11:45;3.90;;;2.65;;
58294;SDS011;45705;55.592;37.460;2023-05-07T04:14:11;4.10;;;2.88;;
58294;SDS011;45705;55.592;37.460;2023-05-07T04:16:37;6.38;;;3.10;;
58294;SDS011;45705;55.592;37.460;2023-05-07T04:19:03;4.90;;;3.08;;
58294;SDS011;45705;55.592;37.460;2023-05-07T04:21:29;3.10;;;2.75;;
58294;SDS011;45705;55.592;37.460;2023-05-07T04:23:56;4.65;;;3.10;;
58294;SDS011;45705;55.592;37.460;2023-05-07T04:26:22;6.50;;;3.45;;
58294;SDS011;45705;55.592;37.460;2023-05-07T04:28:49;3.67;;;2.83;;
58294;SDS011;45705;55.592;37.460;2023-05-07T04:31:16;5.60;;;2.60;;
58294;SDS011;45705;55.592;37.460;2023-05-07T04:33:43;5.70;;;2.55;;
58294;SDS011;45705;55.592;37.460;2023-05-07T04:36:12;5.20;;;2.70;;
58294;SDS011;45705;55.592;37.460;2023-05-07T04:38:45;3.75;;;2.33;;
58294;SDS011;45705;55.592;37.460;2023-05-07T04:41:12;2.67;;;2.00;;
58294;SDS011;45705;55.592;37.460;2023-05-07T04:43:40;5.07;;;2.75;;
58294;SDS011;45705;55.592;37.460;2023-05-07T04:46:06;4.80;;;2.90;;
58294;SDS011;45705;55.592;37.460;2023-05-07T04:48:32;4.93;;;2.45;;
58294;SDS011;45705;55.592;37.460;2023-05-07T04:51:00;3.95;;;2.60;;
58294;SDS011;45705;55.592;37.460;2023-05-07T04:53:26;7.55;;;2.55;;
58294;SDS011;45705;55.592;37.460;2023-05-07T04:55:56;2.97;;;2.40;;
58294;SDS011;45705;55.592;37.460;2023-05-07T04:58:31;2.55;;;2.30;;
58294;SDS011;45705;55.592;37.460;2023-05-07T05:00:57;3.22;;;2.25;;
58294;SDS011;45705;55.592;37.460;2023-05-07T05:03:23;2.65;;;1.70;;
58294;SDS011;45705;55.592;37.460;2023-05-07T05:05:50;4.93;;;2.10;;
58294;SDS011;45705;55.592;37.460;2023-05-07T05:08:17;2.80;;;2.13;;
58294;SDS011;45705;55.592;37.460;2023-05-07T05:10:44;4.15;;;2.20;;
58294;SDS011;45705;55.592;37.460;2023-05-07T05:13:10;3.17;;;1.60;;
58294;SDS011;45705;55.592;37.460;2023-05-07T05:15:38;3.67;;;1.88;;
58294;SDS011;45705;55.592;37.460;2023-05-07T05:18:04;1.85;;;1.70;;
58294;SDS011;45705;55.592;37.460;2023-05-07T05:20:30;6.75;;;1.90;;
58294;SDS011;45705;55.592;37.460;2023-05-07T05:22:56;4.50;;;1.98;;
58294;SDS011;45705;55.592;37.460;2023-05-07T05:25:22;3.13;;;1.90;;
58294;SDS011;45705;55.592;37.460;2023-05-07T05:27:48;7.45;;;2.05;;
58294;SDS011;45705;55.592;37.460;2023-05-07T05:30:14;3.05;;;1.80;;
58294;SDS011;45705;55.592;37.460;2023-05-07T05:32:44;2.80;;;1.90;;
58294;SDS011;45705;55.592;37.460;2023-05-07T05:35:10;2.88;;;2.00;;
58294;SDS011;45705;55.592;37.460;2023-05-07T05:37:35;1.90;;;1.52;;
58294;SDS011;45705;55.592;37.460;2023-05-07T05:40:03;2.95;;;1.83;;
58294;SDS011;45705;55.592;37.460;2023-05-07T05:42:31;7.07;;;1.85;;
58294;SDS011;45705;55.592;37.460;2023-05-07T05:44:57;2.47;;;1.55;;
58294;SDS011;45705;55.592;37.460;2023-05-07T05:47:24;2.30;;;1.58;;
58294;SDS011;45705;55.592;37.460;2023-05-07T05:49:53;2.78;;;1.85;;
58294;SDS011;45705;55.592;37.460;2023-05-07T05:52:19;1.60;;;1.50;;
58294;SDS011;45705;55.592;37.460;2023-05-07T05:54:45;4.68;;;1.80;;
58294;SDS011;45705;55.592;37.460;2023-05-07T05:57:11;4.72;;;1.67;;
58294;SDS011;45705;55.592;37.460;2023-05-07T05:59:37;5.28;;;2.00;;
58294;SDS011;45705;55.592;37.460;2023-05-07T06:02:03;1.83;;;1.50;;
58294;SDS011;45705;55.592;37.460;2023-05-07T06:04:28;4.00;;;1.75;;
58294;SDS011;45705;55.592;37.460;2023-05-07T06:06:55;3.28;;;1.70;;
58294;SDS011;45705;55.592;37.460;2023-05-07T06:09:24;5.63;;;1.55;;
58294;SDS011;45705;55.592;37.460;2023-05-07T06:11:50;4.70;;;1.73;;
58294;SDS011;45705;55.592;37.460;2023-05-07T06:14:16;2.95;;;1.55;;
58294;SDS011;45705;55.592;37.460;2023-05-07T06:16:42;3.10;;;1.55;;
58294;SDS011;45705;55.592;37.460;2023-05-07T06:19:09;1.77;;;1.45;;
58294;SDS011;45705;55.592;37.460;2023-05-07T06:21:36;3.85;;;2.05;;
58294;SDS011;45705;55.592;37.460;2023-05-07T06:24:02;2.90;;;1.75;;
58294;SDS011;45705;55.592;37.460;2023-05-07T06:26:28;8.00;;;1.80;;
58294;SDS011;45705;55.592;37.460;2023-05-07T06:28:53;1.50;;;1.40;;
58294;SDS011;45705;55.592;37.460;2023-05-07T06:31:19;4.95;;;1.65;;
58294;SDS011;45705;55.592;37.460;2023-05-07T06:33:56;3.35;;;1.83;;
58294;SDS011;45705;55.592;37.460;2023-05-07T06:36:26;4.80;;;1.80;;
58294;SDS011;45705;55.592;37.460;2023-05-07T06:38:55;2.90;;;1.75;;
58294;SDS011;45705;55.592;37.460;2023-05-07T06:41:21;4.97;;;2.38;;
58294;SDS011;45705;55.592;37.460;2023-05-07T06:43:47;2.63;;;1.60;;
58294;SDS011;45705;55.592;37.460;2023-05-07T06:46:26;3.33;;;1.75;;
58294;SDS011;45705;55.592;37.460;2023-05-07T06:48:52;7.07;;;2.20;;
58294;SDS011;45705;55.592;37.460;2023-05-07T06:51:19;5.22;;;2.25;;
58294;SDS011;45705;55.592;37.460;2023-05-07T06:53:45;7.13;;;2.78;;
58294;SDS011;45705;55.592;37.460;2023-05-07T06:56:11;4.75;;;1.73;;
58294;SDS011;45705;55.592;37.460;2023-05-07T06:58:38;2.08;;;1.67;;
58294;SDS011;45705;55.592;37.460;2023-05-07T07:01:04;5.07;;;1.83;;
58294;SDS011;45705;55.592;37.460;2023-05-07T07:03:32;1.98;;;1.60;;
58294;SDS011;45705;55.592;37.460;2023-05-07T07:05:58;4.30;;;1.60;;
58294;SDS011;45705;55.592;37.460;2023-05-07T07:08:25;3.80;;;1.67;;
58294;SDS011;45705;55.592;37.460;2023-05-07T07:10:51;3.35;;;1.70;;
58294;SDS011;45705;55.592;37.460;2023-05-07T07:13:17;1.70;;;1.60;;
58294;SDS011;45705;55.592;37.460;2023-05-07T07:15:43;2.28;;;1.70;;
58294;SDS011;45705;55.592;37.460;2023-05-07T07:18:09;6.10;;;2.00;;
58294;SDS011;45705;55.592;37.460;2023-05-07T07:20:36;1.60;;;1.45;;
58294;SDS011;45705;55.592;37.460;2023-05-07T07:23:03;4.68;;;1.70;;
58294;SDS011;45705;55.592;37.460;2023-05-07T07:25:29;3.15;;;2.17;;
58294;SDS011;45705;55.592;37.460;2023-05-07T07:27:55;3.88;;;1.92;;
58294;SDS011;45705;55.592;37.460;2023-05-07T07:30:23;1.98;;;1.60;;
58294;SDS011;45705;55.592;37.460;2023-05-07T07:32:51;1.52;;;1.42;;
58294;SDS011;45705;55.592;37.460;2023-05-07T07:35:19;3.05;;;1.63;;
58294;SDS011;45705;55.592;37.460;2023-05-07T07:37:46;4.22;;;1.75;;
58294;SDS011;45705;55.592;37.460;2023-05-07T07:40:15;4.00;;;2.22;;
58294;SDS011;45705;55.592;37.460;2023-05-07T07:42:41;7.70;;;4.05;;
58294;SDS011;45705;55.592;37.460;2023-05-07T07:45:07;3.45;;;2.30;;
58294;SDS011;45705;55.592;37.460;2023-05-07T07:47:38;2.47;;;1.77;;
58294;SDS011;45705;55.592;37.460;2023-05-07T07:50:06;4.93;;;1.73;;
58294;SDS011;45705;55.592;37.460;2023-05-07T07:52:33;3.10;;;1.90;;
58294;SDS011;45705;55.592;37.460;2023-05-07T07:54:59;2.30;;;1.80;;
58294;SDS011;45705;55.592;37.460;2023-05-07T07:57:25;5.03;;;1.80;;
58294;SDS011;45705;55.592;37.460;2023-05-07T07:59:51;3.00;;;1.90;;
58294;SDS011;45705;55.592;37.460;2023-05-07T08:02:18;4.97;;;2.72;;
58294;SDS011;45705;55.592;37.460;2023-05-07T08:04:44;2.72;;;1.88;;
58294;SDS011;45705;55.592;37.460;2023-05-07T08:07:11;4.70;;;2.53;;
58294;SDS011;45705;55.592;37.460;2023-05-07T08:09:40;2.90;;;1.88;;
58294;SDS011;45705;55.592;37.460;2023-05-07T08:12:07;4.85;;;1.88;;
58294;SDS011;45705;55.592;37.460;2023-05-07T08:14:34;7.53;;;2.05;;
58294;SDS011;45705;55.592;37.460;2023-05-07T08:17:02;5.30;;;2.22;;
58294;SDS011;45705;55.592;37.460;2023-05-07T08:19:28;4.07;;;2.30;;
58294;SDS011;45705;55.592;37.460;2023-05-07T08:21:54;8.95;;;1.95;;
58294;SDS011;45705;55.592;37.460;2023-05-07T08:24:22;2.70;;;1.70;;
58294;SDS011;45705;55.592;37.460;2023-05-07T08:26:48;4.93;;;1.98;;
58294;SDS011;45705;55.592;37.460;2023-05-07T08:29:15;4.60;;;2.00;;
58294;SDS011;45705;55.592;37.460;2023-05-07T08:31:41;2.95;;;1.73;;
58294;SDS011;45705;55.592;37.460;2023-05-07T08:34:07;7.93;;;1.85;;
58294;SDS011;45705;55.592;37.460;2023-05-07T08:36:35;7.93;;;1.60;;
58294;SDS011;45705;55.592;37.460;2023-05-07T08:39:01;2.17;;;1.40;;
58294;SDS011;45705;55.592;37.460;2023-05-07T08:41:27;4.05;;;1.50;;
58294;SDS011;45705;55.592;37.460;2023-05-07T08:43:53;4.93;;;1.85;;
58294;SDS011;45705;55.592;37.460;2023-05-07T08:46:23;2.28;;;1.65;;
58294;SDS011;45705;55.592;37.460;2023-05-07T08:48:54;1.83;;;1.60;;
58294;SDS011;45705;55.592;37.460;2023-05-07T08:51:20;4.97;;;1.73;;
58294;SDS011;45705;55.592;37.460;2023-05-07T08:53:48;2.30;;;1.55;;
58294;SDS011;45705;55.592;37.460;2023-05-07T08:56:20;9.10;;;1.60;;
58294;SDS011;45705;55.592;37.460;2023-05-07T08:58:47;2.35;;;1.48;;
58294;SDS011;45705;55.592;37.460;2023-05-07T09:01:14;5.68;;;2.05;;
58294;SDS011;45705;55.592;37.460;2023-05-07T09:03:45;3.97;;;1.70;;
58294;SDS011;45705;55.592;37.460;2023-05-07T09:06:13;3.63;;;2.20;;
58294;SDS011;45705;55.592;37.460;2023-05-07T09:08:40;2.08;;;1.80;;
58294;SDS011;45705;55.592;37.460;2023-05-07T09:11:07;6.43;;;2.00;;
58294;SDS011;45705;55.592;37.460;2023-05-07T09:13:33;5.85;;;1.90;;
58294;SDS011;45705;55.592;37.460;2023-05-07T09:16:09;1.63;;;1.52;;
58294;SDS011;45705;55.592;37.460;2023-05-07T09:18:44;3.97;;;1.50;;
58294;SDS011;45705;55.592;37.460;2023-05-07T09:21:15;4.18;;;1.70;;
58294;SDS011;45705;55.592;37.460;2023-05-07T09:23:53;3.83;;;1.90;;
58294;SDS011;45705;55.592;37.460;2023-05-07T09:26:23;13.27;;;2.17;;
58294;SDS011;45705;55.592;37.460;2023-05-07T09:28:50;4.60;;;2.03;;
58294;SDS011;45705;55.592;37.460;2023-05-07T09:31:17;2.60;;;1.50;;
58294;SDS011;45705;55.592;37.460;2023-05-07T09:33:44;2.03;;;1.67;;
58294;SDS011;45705;55.592;37.460;2023-05-07T09:36:12;5.65;;;1.70;;
58294;SDS011;45705;55.592;37.460;2023-05-07T09:38:40;1.90;;;1.20;;
58294;SDS011;45705;55.592;37.460;2023-05-07T09:41:07;9.13;;;2.00;;
58294;SDS011;45705;55.592;37.460;2023-05-07T09:43:41;4.35;;;1.67;;
58294;SDS011;45705;55.592;37.460;2023-05-07T09:46:12;4.10;;;1.60;;
58294;SDS011;45705;55.592;37.460;2023-05-07T09:48:43;6.70;;;1.92;;
58294;SDS011;45705;55.592;37.460;2023-05-07T09:51:29;2.95;;;1.40;;
58294;SDS011;45705;55.592;37.460;2023-05-07T09:53:59;1.27;;;1.17;;
58294;SDS011;45705;55.592;37.460;2023-05-07T09:56:30;4.75;;;1.33;;
58294;SDS011;45705;55.592;37.460;2023-05-07T09:58:58;2.95;;;1.30;;
58294;SDS011;45705;55.592;37.460;2023-05-07T10:01:27;2.38;;;1.35;;
58294;SDS011;45705;55.592;37.460;2023-05-07T10:03:54;3.50;;;1.60;;
58294;SDS011;45705;55.592;37.460;2023-05-07T10:06:21;3.88;;;1.48;;
58294;SDS011;45705;55.592;37.460;2023-05-07T10:08:48;1.92;;;1.52;;
58294;SDS011;45705;55.592;37.460;2023-05-07T10:11:15;2.75;;;1.80;;
58294;SDS011;45705;55.592;37.460;2023-05-07T10:13:42;3.00;;;1.90;;
58294;SDS011;45705;55.592;37.460;2023-05-07T10:16:10;4.53;;;1.65;;
58294;SDS011;45705;55.592;37.460;2023-05-07T10:18:41;2.97;;;1.55;;
58294;SDS011;45705;55.592;37.460;2023-05-07T10:21:16;2.90;;;1.70;;
58294;SDS011;45705;55.592;37.460;2023-05-07T10:23:45;2.65;;;1.38;;
58294;SDS011;45705;55.592;37.460;2023-05-07T10:26:15;3.28;;;1.40;;
58294;SDS011;45705;55.592;37.460;2023-05-07T10:28:44;1.88;;;1.48;;
58294;SDS011;45705;55.592;37.460;2023-05-07T10:32:03;3.53;;;1.60;;
58294;SDS011;45705;55.592;37.460;2023-05-07T10:34:01;3.47;;;1.95;;
58294;SDS011;45705;55.592;37.460;2023-05-07T10:36:33;5.07;;;1.65;;
58294;SDS011;45705;55.592;37.460;2023-05-07T10:39:00;2.40;;;1.77;;
58294;SDS011;45705;55.592;37.460;2023-05-07T10:41:25;2.00;;;1.70;;
58294;SDS011;45705;55.592;37.460;2023-05-07T10:43:52;3.97;;;1.63;;
58294;SDS011;45705;55.592;37.460;2023-05-07T10:46:23;2.15;;;1.77;;
58294;SDS011;45705;55.592;37.460;2023-05-07T10:49:14;3.25;;;1.90;;
58294;SDS011;45705;55.592;37.460;2023-05-07T10:52:11;3.05;;;1.73;;
58294;SDS011;45705;55.592;37.460;2023-05-07T10:54:48;2.47;;;1.73;;
58294;SDS011;45705;55.592;37.460;2023-05-07T10:58:25;6.60;;;1.95;;
58294;SDS011;45705;55.592;37.460;2023-05-07T11:01:02;2.65;;;1.75;;
58294;SDS011;45705;55.592;37.460;2023-05-07T11:03:34;4.47;;;1.60;;
58294;SDS011;45705;55.592;37.460;2023-05-07T11:11:17;4.18;;;1.48;;
58294;SDS011;45705;55.592;37.460;2023-05-07T11:13:51;2.97;;;1.50;;
58294;SDS011;45705;55.592;37.460;2023-05-07T11:16:28;3.75;;;1.90;;
58294;SDS011;45705;55.592;37.460;2023-05-07T11:19:18;2.50;;;1.67;;
58294;SDS011;45705;55.592;37.460;2023-05-07T11:25:06;5.25;;;1.63;;
58294;SDS011;45705;55.592;37.460;2023-05-07T11:27:33;4.15;;;1.98;;
58294;SDS011;45705;55.592;37.460;2023-05-07T11:30:00;3.38;;;1.67;;
58294;SDS011;45705;55.592;37.460;2023-05-07T11:32:32;5.15;;;1.85;;
58294;SDS011;45705;55.592;37.460;2023-05-07T11:34:59;5.47;;;1.92;;
58294;SDS011;45705;55.592;37.460;2023-05-07T11:37:26;4.07;;;1.70;;
58294;SDS011;45705;55.592;37.460;2023-05-07T11:40:05;3.83;;;2.17;;
58294;SDS011;45705;55.592;37.460;2023-05-07T11:42:34;4.50;;;1.50;;
58294;SDS011;45705;55.592;37.460;2023-05-07T11:45:04;2.42;;;1.67;;
58294;SDS011;45705;55.592;37.460;2023-05-07T11:47:32;5.40;;;1.90;;
58294;SDS011;45705;55.592;37.460;2023-05-07T11:50:03;4.10;;;1.70;;
58294;SDS011;45705;55.592;37.460;2023-05-07T11:52:30;3.15;;;1.48;;
58294;SDS011;45705;55.592;37.460;2023-05-07T11:54:58;4.03;;;1.88;;
58294;SDS011;45705;55.592;37.460;2023-05-07T11:57:25;3.50;;;2.03;;
58294;SDS011;45705;55.592;37.460;2023-05-07T11:59:52;2.85;;;1.70;;
58294;SDS011;45705;55.592;37.460;2023-05-07T12:02:19;3.75;;;2.20;;
58294;SDS011;45705;55.592;37.460;2023-05-07T12:04:44;7.65;;;1.70;;
58294;SDS011;45705;55.592;37.460;2023-05-07T12:07:14;2.92;;;1.85;;
58294;SDS011;45705;55.592;37.460;2023-05-07T12:09:41;3.22;;;2.00;;
58294;SDS011;45705;55.592;37.460;2023-05-07T12:12:07;2.25;;;1.83;;
58294;SDS011;45705;55.592;37.460;2023-05-07T12:14:37;3.50;;;1.60;;
58294;SDS011;45705;55.592;37.460;2023-05-07T12:17:07;1.60;;;1.50;;
58294;SDS011;45705;55.592;37.460;2023-05-07T12:19:34;3.30;;;2.00;;
58294;SDS011;45705;55.592;37.460;2023-05-07T12:22:01;3.53;;;2.10;;
58294;SDS011;45705;55.592;37.460;2023-05-07T12:24:28;7.60;;;3.22;;
58294;SDS011;45705;55.592;37.460;2023-05-07T12:26:54;3.28;;;1.92;;
58294;SDS011;45705;55.592;37.460;2023-05-07T12:29:23;4.93;;;2.45;;
58294;SDS011;45705;55.592;37.460;2023-05-07T12:31:49;4.70;;;2.42;;
58294;SDS011;45705;55.592;37.460;2023-05-07T12:34:15;6.18;;;3.72;;
58294;SDS011;45705;55.592;37.460;2023-05-07T12:36:41;5.93;;;2.78;;
58294;SDS011;45705;55.592;37.460;2023-05-07T12:39:07;8.50;;;2.20;;
58294;SDS011;45705;55.592;37.460;2023-05-07T12:41:53;7.20;;;2.33;;
58294;SDS011;45705;55.592;37.460;2023-05-07T12:44:23;4.25;;;2.03;;
58294;SDS011;45705;55.592;37.460;2023-05-07T12:46:49;2.17;;;1.92;;
58294;SDS011;45705;55.592;37.460;2023-05-07T12:49:16;4.68;;;2.20;;
58294;SDS011;45705;55.592;37.460;2023-05-07T12:51:43;3.17;;;1.95;;
58294;SDS011;45705;55.592;37.460;2023-05-07T12:54:09;7.82;;;2.10;;
58294;SDS011;45705;55.592;37.460;2023-05-07T12:56:35;7.72;;;1.83;;
58294;SDS011;45705;55.592;37.460;2023-05-07T12:59:02;2.92;;;1.60;;
58294;SDS011;45705;55.592;37.460;2023-05-07T13:01:29;4.82;;;1.75;;
58294;SDS011;45705;55.592;37.460;2023-05-07T13:04:02;8.10;;;2.17;;
58294;SDS011;45705;55.592;37.460;2023-05-07T13:06:29;3.95;;;2.10;;
58294;SDS011;45705;55.592;37.460;2023-05-07T13:08:56;2.72;;;1.83;;
58294;SDS011;45705;55.592;37.460;2023-05-07T13:11:22;3.33;;;1.80;;
58294;SDS011;45705;55.592;37.460;2023-05-07T13:13:48;5.10;;;1.80;;
58294;SDS011;45705;55.592;37.460;2023-05-07T13:16:14;2.92;;;2.10;;
58294;SDS011;45705;55.592;37.460;2023-05-07T13:18:40;4.75;;;2.20;;
58294;SDS011;45705;55.592;37.460;2023-05-07T13:21:06;3.40;;;2.55;;
58294;SDS011;45705;55.592;37.460;2023-05-07T13:23:32;5.13;;;2.25;;
58294;SDS011;45705;55.592;37.460;2023-05-07T13:25:57;4.15;;;1.70;;
58294;SDS011;45705;55.592;37.460;2023-05-07T13:28:24;5.88;;;1.80;;
58294;SDS011;45705;55.592;37.460;2023-05-07T13:30:50;6.53;;;2.47;;
58294;SDS011;45705;55.592;37.460;2023-05-07T13:33:17;4.30;;;1.77;;
58294;SDS011;45705;55.592;37.460;2023-05-07T13:35:43;4.05;;;2.35;;
58294;SDS011;45705;55.592;37.460;2023-05-07T13:38:10;4.95;;;2.42;;
58294;SDS011;45705;55.592;37.460;2023-05-07T13:40:36;5.03;;;2.72;;
58294;SDS011;45705;55.592;37.460;2023-05-07T13:43:01;6.03;;;2.80;;
58294;SDS011;45705;55.592;37.460;2023-05-07T13:45:28;3.08;;;2.58;;
58294;SDS011;45705;55.592;37.460;2023-05-07T13:47:55;3.42;;;2.30;;
58294;SDS011;45705;55.592;37.460;2023-05-07T13:50:22;5.95;;;2.35;;
58294;SDS011;45705;55.592;37.460;2023-05-07T13:52:47;3.67;;;2.40;;
